大阪市立科学館学芸員 江越航のホームページ  大阪市立科学館 学芸員

 江越 航のホームページ

大阪市立科学館 屋上ライブカメラ

現在の科学館上空の様子
ライブカメラ

環境データ

過去24時間の環境変化
環境トレンド
凡例
過去1週間の環境変化
気象データ

数値計算データ(NOAA)

海面更正気圧 地表付近の風
海面更正気圧 地表付近の風
850hPa面の温度 850hPa面の相対湿度
850hPa面の温度 850hPa面の相対湿度

定時航空実況気象通報式(METAR)

大阪空港 定時航空実況気象通報式
09日16時00分(JST)
RJOO 090700Z 23005KT 190V270 9999 FEW030 BKN120 13/04 Q1020

関西国際空港 定時航空実況気象通報式
09日16時00分(JST)
RJBB 090700Z VRB01KT 9999 FEW025 BKN120 13/05 Q1020 NOSIG

気象庁XML 受信データ

大阪府府県天気予報
2022-12-09T17:00:00+09:00
今夜 くもり

府県天気概況
2022-12-09T16:32:00+09:00
 大阪府は、気圧の谷や湿った空気の影響でおおむね曇っています。

 9日の大阪府は、気圧の谷や湿った空気の影響で曇るでしょう。

 10日の大阪府は、高気圧に覆われて晴れますが、湿った空気の影響で昼過ぎから曇り、夕方から夜のはじめ頃にかけて雨の降る所がある見込みです。

【近畿地方】
 近畿地方は、高気圧に覆われておおむね晴れています。

 9日の近畿地方は、高気圧に覆われておおむね晴れますが、気圧の谷や湿った空気の影響で夜は曇るでしょう。

 10日の近畿地方は、北部や中部では高気圧に覆われて晴れますが、湿った空気や寒気の影響で昼過ぎから次第に曇り、夕方からは雨の降る所がある見込みです。北部では雷を伴う所もあるでしょう。南部では湿った空気の影響で曇り、夕方から夜のはじめ頃にかけて雨が降る見込みです。